sensor_id;sensor_type;location;lat;lon;timestamp;P1;durP1;ratioP1;P2;durP2;ratioP2
8887;SDS011;4480;52.370;9.748;2023-06-10T00:00:49;6.23;;;3.97;;
8887;SDS011;4480;52.370;9.748;2023-06-10T00:03:16;5.17;;;3.37;;
8887;SDS011;4480;52.370;9.748;2023-06-10T00:05:43;6.80;;;3.60;;
8887;SDS011;4480;52.370;9.748;2023-06-10T00:08:10;5.40;;;4.10;;
8887;SDS011;4480;52.370;9.748;2023-06-10T00:10:37;7.10;;;3.80;;
8887;SDS011;4480;52.370;9.748;2023-06-10T00:13:05;5.80;;;3.80;;
8887;SDS011;4480;52.370;9.748;2023-06-10T00:15:35;5.80;;;3.57;;
8887;SDS011;4480;52.370;9.748;2023-06-10T00:18:02;5.83;;;3.47;;
8887;SDS011;4480;52.370;9.748;2023-06-10T00:20:28;7.77;;;4.80;;
8887;SDS011;4480;52.370;9.748;2023-06-10T00:22:56;9.07;;;3.47;;
8887;SDS011;4480;52.370;9.748;2023-06-10T00:25:24;5.10;;;3.40;;
8887;SDS011;4480;52.370;9.748;2023-06-10T00:27:51;5.10;;;4.10;;
8887;SDS011;4480;52.370;9.748;2023-06-10T00:30:18;4.80;;;3.70;;
8887;SDS011;4480;52.370;9.748;2023-06-10T00:32:47;6.10;;;3.87;;
8887;SDS011;4480;52.370;9.748;2023-06-10T00:35:14;5.77;;;4.63;;
8887;SDS011;4480;52.370;9.748;2023-06-10T00:37:41;4.30;;;3.90;;
8887;SDS011;4480;52.370;9.748;2023-06-10T00:40:08;5.60;;;3.50;;
8887;SDS011;4480;52.370;9.748;2023-06-10T00:42:35;5.13;;;3.67;;
8887;SDS011;4480;52.370;9.748;2023-06-10T00:45:03;4.37;;;3.80;;
8887;SDS011;4480;52.370;9.748;2023-06-10T00:47:30;4.90;;;3.70;;
8887;SDS011;4480;52.370;9.748;2023-06-10T00:49:59;6.87;;;4.30;;
8887;SDS011;4480;52.370;9.748;2023-06-10T00:52:27;8.40;;;3.70;;
8887;SDS011;4480;52.370;9.748;2023-06-10T00:54:55;9.30;;;3.73;;
8887;SDS011;4480;52.370;9.748;2023-06-10T00:57:22;4.70;;;3.27;;
8887;SDS011;4480;52.370;9.748;2023-06-10T00:59:49;4.87;;;3.70;;
8887;SDS011;4480;52.370;9.748;2023-06-10T01:02:16;7.63;;;3.97;;
8887;SDS011;4480;52.370;9.748;2023-06-10T01:04:43;5.20;;;3.53;;
8887;SDS011;4480;52.370;9.748;2023-06-10T01:07:15;9.73;;;3.63;;
8887;SDS011;4480;52.370;9.748;2023-06-10T01:09:49;5.63;;;3.90;;
8887;SDS011;4480;52.370;9.748;2023-06-10T01:12:24;5.50;;;3.90;;
8887;SDS011;4480;52.370;9.748;2023-06-10T01:14:57;6.90;;;4.37;;
8887;SDS011;4480;52.370;9.748;2023-06-10T01:17:25;9.00;;;4.60;;
8887;SDS011;4480;52.370;9.748;2023-06-10T01:19:53;4.43;;;4.00;;
8887;SDS011;4480;52.370;9.748;2023-06-10T01:22:23;8.10;;;4.83;;
8887;SDS011;4480;52.370;9.748;2023-06-10T01:24:51;5.23;;;4.33;;
8887;SDS011;4480;52.370;9.748;2023-06-10T01:27:19;8.10;;;5.43;;
8887;SDS011;4480;52.370;9.748;2023-06-10T01:29:50;6.63;;;4.70;;
8887;SDS011;4480;52.370;9.748;2023-06-10T01:32:27;5.13;;;4.30;;
8887;SDS011;4480;52.370;9.748;2023-06-10T01:34:59;6.73;;;4.60;;
8887;SDS011;4480;52.370;9.748;2023-06-10T01:37:29;5.23;;;4.37;;
8887;SDS011;4480;52.370;9.748;2023-06-10T01:39:58;7.83;;;4.67;;
8887;SDS011;4480;52.370;9.748;2023-06-10T01:42:26;5.97;;;4.20;;
8887;SDS011;4480;52.370;9.748;2023-06-10T01:44:54;5.20;;;4.20;;
8887;SDS011;4480;52.370;9.748;2023-06-10T01:47:21;6.67;;;5.03;;
8887;SDS011;4480;52.370;9.748;2023-06-10T01:49:47;10.10;;;4.93;;
8887;SDS011;4480;52.370;9.748;2023-06-10T01:52:14;5.67;;;5.07;;
8887;SDS011;4480;52.370;9.748;2023-06-10T01:54:42;6.43;;;4.60;;
8887;SDS011;4480;52.370;9.748;2023-06-10T01:57:09;6.43;;;5.40;;
8887;SDS011;4480;52.370;9.748;2023-06-10T01:59:36;6.60;;;5.30;;
8887;SDS011;4480;52.370;9.748;2023-06-10T02:02:03;8.37;;;5.80;;
8887;SDS011;4480;52.370;9.748;2023-06-10T02:04:30;6.53;;;4.90;;
8887;SDS011;4480;52.370;9.748;2023-06-10T02:06:57;10.73;;;6.00;;
8887;SDS011;4480;52.370;9.748;2023-06-10T02:09:24;8.17;;;5.57;;
8887;SDS011;4480;52.370;9.748;2023-06-10T02:11:52;9.47;;;6.33;;
8887;SDS011;4480;52.370;9.748;2023-06-10T02:14:19;8.07;;;5.57;;
8887;SDS011;4480;52.370;9.748;2023-06-10T02:16:46;7.23;;;5.40;;
8887;SDS011;4480;52.370;9.748;2023-06-10T02:19:13;10.10;;;5.77;;
8887;SDS011;4480;52.370;9.748;2023-06-10T02:21:40;6.57;;;5.60;;
8887;SDS011;4480;52.370;9.748;2023-06-10T02:24:07;7.60;;;5.40;;
8887;SDS011;4480;52.370;9.748;2023-06-10T02:26:34;6.60;;;5.97;;
8887;SDS011;4480;52.370;9.748;2023-06-10T02:29:02;8.33;;;6.33;;
8887;SDS011;4480;52.370;9.748;2023-06-10T02:31:28;8.60;;;6.47;;
8887;SDS011;4480;52.370;9.748;2023-06-10T02:33:55;7.87;;;5.77;;
8887;SDS011;4480;52.370;9.748;2023-06-10T02:36:22;11.83;;;6.67;;
8887;SDS011;4480;52.370;9.748;2023-06-10T02:38:49;11.30;;;6.10;;
8887;SDS011;4480;52.370;9.748;2023-06-10T02:41:16;9.73;;;6.40;;
8887;SDS011;4480;52.370;9.748;2023-06-10T02:43:43;13.13;;;6.17;;
8887;SDS011;4480;52.370;9.748;2023-06-10T02:46:11;9.00;;;6.27;;
8887;SDS011;4480;52.370;9.748;2023-06-10T02:48:41;9.80;;;5.77;;
8887;SDS011;4480;52.370;9.748;2023-06-10T02:51:08;10.07;;;6.33;;
8887;SDS011;4480;52.370;9.748;2023-06-10T02:53:36;11.00;;;6.80;;
8887;SDS011;4480;52.370;9.748;2023-06-10T02:56:02;6.37;;;5.30;;
8887;SDS011;4480;52.370;9.748;2023-06-10T02:58:30;8.40;;;5.70;;
8887;SDS011;4480;52.370;9.748;2023-06-10T03:00:57;11.70;;;6.87;;
8887;SDS011;4480;52.370;9.748;2023-06-10T03:03:25;7.50;;;6.40;;
8887;SDS011;4480;52.370;9.748;2023-06-10T03:05:52;7.67;;;6.17;;
8887;SDS011;4480;52.370;9.748;2023-06-10T03:08:19;8.33;;;6.20;;
8887;SDS011;4480;52.370;9.748;2023-06-10T03:10:46;9.10;;;6.53;;
8887;SDS011;4480;52.370;9.748;2023-06-10T03:13:12;7.10;;;5.63;;
8887;SDS011;4480;52.370;9.748;2023-06-10T03:15:40;6.97;;;6.27;;
8887;SDS011;4480;52.370;9.748;2023-06-10T03:18:07;9.97;;;6.57;;
8887;SDS011;4480;52.370;9.748;2023-06-10T03:20:35;8.60;;;6.30;;
8887;SDS011;4480;52.370;9.748;2023-06-10T03:23:02;8.87;;;6.63;;
8887;SDS011;4480;52.370;9.748;2023-06-10T03:25:30;9.03;;;7.20;;
8887;SDS011;4480;52.370;9.748;2023-06-10T03:27:56;10.10;;;7.07;;
8887;SDS011;4480;52.370;9.748;2023-06-10T03:30:23;10.40;;;6.90;;
8887;SDS011;4480;52.370;9.748;2023-06-10T03:32:50;10.47;;;6.20;;
8887;SDS011;4480;52.370;9.748;2023-06-10T03:35:17;10.20;;;7.20;;
8887;SDS011;4480;52.370;9.748;2023-06-10T03:37:45;8.40;;;6.60;;
8887;SDS011;4480;52.370;9.748;2023-06-10T03:40:12;11.90;;;7.33;;
8887;SDS011;4480;52.370;9.748;2023-06-10T03:42:39;9.70;;;6.40;;
8887;SDS011;4480;52.370;9.748;2023-06-10T03:45:06;8.40;;;7.10;;
8887;SDS011;4480;52.370;9.748;2023-06-10T03:47:34;8.83;;;6.33;;
8887;SDS011;4480;52.370;9.748;2023-06-10T03:50:02;8.40;;;6.40;;
8887;SDS011;4480;52.370;9.748;2023-06-10T03:52:29;13.43;;;7.43;;
8887;SDS011;4480;52.370;9.748;2023-06-10T03:54:57;8.73;;;7.07;;
8887;SDS011;4480;52.370;9.748;2023-06-10T03:57:24;11.00;;;8.30;;
8887;SDS011;4480;52.370;9.748;2023-06-10T03:59:51;10.93;;;6.93;;
8887;SDS011;4480;52.370;9.748;2023-06-10T04:02:17;10.73;;;7.17;;
8887;SDS011;4480;52.370;9.748;2023-06-10T04:04:44;15.17;;;6.70;;
8887;SDS011;4480;52.370;9.748;2023-06-10T04:07:11;8.10;;;6.67;;
8887;SDS011;4480;52.370;9.748;2023-06-10T04:11:49;8.10;;;6.63;;
8887;SDS011;4480;52.370;9.748;2023-06-10T04:14:16;9.47;;;7.60;;
8887;SDS011;4480;52.370;9.748;2023-06-10T04:16:43;14.93;;;7.60;;
8887;SDS011;4480;52.370;9.748;2023-06-10T04:19:09;8.87;;;6.60;;
8887;SDS011;4480;52.370;9.748;2023-06-10T04:21:37;8.60;;;7.70;;
8887;SDS011;4480;52.370;9.748;2023-06-10T04:24:04;11.03;;;7.77;;
8887;SDS011;4480;52.370;9.748;2023-06-10T04:26:31;9.20;;;6.93;;
8887;SDS011;4480;52.370;9.748;2023-06-10T04:29:00;9.17;;;6.90;;
8887;SDS011;4480;52.370;9.748;2023-06-10T04:31:26;9.23;;;6.30;;
8887;SDS011;4480;52.370;9.748;2023-06-10T04:33:53;13.17;;;7.90;;
8887;SDS011;4480;52.370;9.748;2023-06-10T04:36:20;7.57;;;5.83;;
8887;SDS011;4480;52.370;9.748;2023-06-10T04:38:47;7.67;;;5.50;;
8887;SDS011;4480;52.370;9.748;2023-06-10T04:41:14;9.33;;;7.03;;
8887;SDS011;4480;52.370;9.748;2023-06-10T04:43:40;8.37;;;6.27;;
8887;SDS011;4480;52.370;9.748;2023-06-10T04:46:09;9.20;;;6.50;;
8887;SDS011;4480;52.370;9.748;2023-06-10T04:48:35;9.37;;;7.50;;
8887;SDS011;4480;52.370;9.748;2023-06-10T04:51:02;10.33;;;5.67;;
8887;SDS011;4480;52.370;9.748;2023-06-10T04:53:30;8.47;;;6.20;;
8887;SDS011;4480;52.370;9.748;2023-06-10T04:55:57;7.00;;;6.17;;
8887;SDS011;4480;52.370;9.748;2023-06-10T04:58:24;7.27;;;6.00;;
8887;SDS011;4480;52.370;9.748;2023-06-10T05:00:50;10.90;;;6.90;;
8887;SDS011;4480;52.370;9.748;2023-06-10T05:03:19;11.90;;;5.90;;
8887;SDS011;4480;52.370;9.748;2023-06-10T05:05:45;5.77;;;5.20;;
8887;SDS011;4480;52.370;9.748;2023-06-10T05:08:12;10.10;;;5.63;;
8887;SDS011;4480;52.370;9.748;2023-06-10T05:10:39;6.33;;;5.23;;
8887;SDS011;4480;52.370;9.748;2023-06-10T05:13:06;7.40;;;5.90;;
8887;SDS011;4480;52.370;9.748;2023-06-10T05:15:32;7.13;;;5.00;;
8887;SDS011;4480;52.370;9.748;2023-06-10T05:17:59;9.10;;;5.20;;
8887;SDS011;4480;52.370;9.748;2023-06-10T05:20:29;7.03;;;4.83;;
8887;SDS011;4480;52.370;9.748;2023-06-10T05:22:56;9.03;;;5.40;;
8887;SDS011;4480;52.370;9.748;2023-06-10T05:25:22;9.77;;;5.60;;
8887;SDS011;4480;52.370;9.748;2023-06-10T05:27:51;10.37;;;5.87;;
8887;SDS011;4480;52.370;9.748;2023-06-10T05:30:18;9.30;;;5.53;;
8887;SDS011;4480;52.370;9.748;2023-06-10T05:32:45;10.17;;;6.30;;
8887;SDS011;4480;52.370;9.748;2023-06-10T05:35:12;7.30;;;5.60;;
8887;SDS011;4480;52.370;9.748;2023-06-10T05:37:40;7.90;;;5.67;;
8887;SDS011;4480;52.370;9.748;2023-06-10T05:40:07;12.97;;;5.77;;
8887;SDS011;4480;52.370;9.748;2023-06-10T05:42:35;7.07;;;5.10;;
8887;SDS011;4480;52.370;9.748;2023-06-10T05:45:01;7.93;;;5.40;;
8887;SDS011;4480;52.370;9.748;2023-06-10T05:47:29;6.40;;;5.57;;
8887;SDS011;4480;52.370;9.748;2023-06-10T05:49:56;7.67;;;5.17;;
8887;SDS011;4480;52.370;9.748;2023-06-10T05:52:22;7.93;;;5.33;;
8887;SDS011;4480;52.370;9.748;2023-06-10T05:54:51;9.97;;;5.20;;
8887;SDS011;4480;52.370;9.748;2023-06-10T05:57:19;6.63;;;5.20;;
8887;SDS011;4480;52.370;9.748;2023-06-10T05:59:46;11.47;;;5.37;;
8887;SDS011;4480;52.370;9.748;2023-06-10T06:02:12;8.80;;;4.67;;
8887;SDS011;4480;52.370;9.748;2023-06-10T06:04:39;6.33;;;4.97;;
8887;SDS011;4480;52.370;9.748;2023-06-10T06:07:06;7.97;;;5.03;;
8887;SDS011;4480;52.370;9.748;2023-06-10T06:09:33;9.30;;;5.10;;
8887;SDS011;4480;52.370;9.748;2023-06-10T06:12:01;11.60;;;5.70;;
8887;SDS011;4480;52.370;9.748;2023-06-10T06:14:30;9.60;;;4.90;;
8887;SDS011;4480;52.370;9.748;2023-06-10T06:16:58;6.97;;;5.00;;
8887;SDS011;4480;52.370;9.748;2023-06-10T06:19:24;8.27;;;4.50;;
8887;SDS011;4480;52.370;9.748;2023-06-10T06:21:51;7.00;;;4.90;;
8887;SDS011;4480;52.370;9.748;2023-06-10T06:24:18;7.93;;;5.00;;
8887;SDS011;4480;52.370;9.748;2023-06-10T06:26:45;10.47;;;6.10;;
8887;SDS011;4480;52.370;9.748;2023-06-10T06:29:13;7.33;;;5.57;;
8887;SDS011;4480;52.370;9.748;2023-06-10T06:31:40;9.90;;;6.33;;
8887;SDS011;4480;52.370;9.748;2023-06-10T06:34:07;8.37;;;5.40;;
8887;SDS011;4480;52.370;9.748;2023-06-10T06:36:33;5.40;;;4.70;;
8887;SDS011;4480;52.370;9.748;2023-06-10T06:39:00;7.43;;;5.33;;
8887;SDS011;4480;52.370;9.748;2023-06-10T06:41:27;7.70;;;5.50;;
8887;SDS011;4480;52.370;9.748;2023-06-10T06:43:54;5.63;;;4.90;;
8887;SDS011;4480;52.370;9.748;2023-06-10T06:46:22;6.53;;;5.80;;
8887;SDS011;4480;52.370;9.748;2023-06-10T06:48:49;9.73;;;6.03;;
8887;SDS011;4480;52.370;9.748;2023-06-10T06:51:16;6.70;;;4.87;;
8887;SDS011;4480;52.370;9.748;2023-06-10T06:53:43;8.63;;;5.20;;
8887;SDS011;4480;52.370;9.748;2023-06-10T06:56:10;5.97;;;5.20;;
8887;SDS011;4480;52.370;9.748;2023-06-10T06:58:37;8.47;;;4.60;;
8887;SDS011;4480;52.370;9.748;2023-06-10T07:01:04;8.03;;;5.40;;
8887;SDS011;4480;52.370;9.748;2023-06-10T07:03:32;6.40;;;5.13;;
8887;SDS011;4480;52.370;9.748;2023-06-10T07:05:59;9.90;;;6.07;;
8887;SDS011;4480;52.370;9.748;2023-06-10T07:08:26;8.90;;;5.67;;
8887;SDS011;4480;52.370;9.748;2023-06-10T07:10:52;8.30;;;5.90;;
8887;SDS011;4480;52.370;9.748;2023-06-10T07:13:19;12.13;;;6.03;;
8887;SDS011;4480;52.370;9.748;2023-06-10T07:15:46;11.63;;;5.80;;
8887;SDS011;4480;52.370;9.748;2023-06-10T07:18:14;10.27;;;5.50;;
8887;SDS011;4480;52.370;9.748;2023-06-10T07:20:42;9.37;;;6.07;;
8887;SDS011;4480;52.370;9.748;2023-06-10T07:23:09;8.50;;;6.23;;
8887;SDS011;4480;52.370;9.748;2023-06-10T07:25:36;7.53;;;5.83;;
8887;SDS011;4480;52.370;9.748;2023-06-10T07:28:03;11.63;;;6.00;;
8887;SDS011;4480;52.370;9.748;2023-06-10T07:30:30;7.13;;;4.90;;
8887;SDS011;4480;52.370;9.748;2023-06-10T07:32:57;7.37;;;5.60;;
8887;SDS011;4480;52.370;9.748;2023-06-10T07:35:24;7.17;;;5.73;;
8887;SDS011;4480;52.370;9.748;2023-06-10T07:37:52;7.93;;;4.90;;
8887;SDS011;4480;52.370;9.748;2023-06-10T07:40:19;10.60;;;6.90;;
8887;SDS011;4480;52.370;9.748;2023-06-10T07:42:46;8.73;;;5.53;;
8887;SDS011;4480;52.370;9.748;2023-06-10T07:45:12;7.97;;;4.90;;
8887;SDS011;4480;52.370;9.748;2023-06-10T07:47:39;7.70;;;5.60;;
8887;SDS011;4480;52.370;9.748;2023-06-10T07:50:06;10.37;;;5.67;;
8887;SDS011;4480;52.370;9.748;2023-06-10T07:52:34;9.33;;;6.30;;
8887;SDS011;4480;52.370;9.748;2023-06-10T07:55:02;9.07;;;6.10;;
8887;SDS011;4480;52.370;9.748;2023-06-10T07:57:30;9.30;;;5.60;;
8887;SDS011;4480;52.370;9.748;2023-06-10T07:59:59;7.97;;;5.90;;
8887;SDS011;4480;52.370;9.748;2023-06-10T08:02:29;6.50;;;5.23;;
8887;SDS011;4480;52.370;9.748;2023-06-10T08:04:56;6.73;;;5.23;;
8887;SDS011;4480;52.370;9.748;2023-06-10T08:07:22;10.33;;;6.37;;
8887;SDS011;4480;52.370;9.748;2023-06-10T08:09:50;9.80;;;6.27;;
8887;SDS011;4480;52.370;9.748;2023-06-10T08:12:18;6.80;;;5.20;;
8887;SDS011;4480;52.370;9.748;2023-06-10T08:14:45;8.20;;;5.10;;
8887;SDS011;4480;52.370;9.748;2023-06-10T08:17:12;8.17;;;5.40;;
8887;SDS011;4480;52.370;9.748;2023-06-10T08:19:39;6.43;;;5.13;;
8887;SDS011;4480;52.370;9.748;2023-06-10T08:22:06;7.30;;;5.00;;
8887;SDS011;4480;52.370;9.748;2023-06-10T08:24:32;8.70;;;4.90;;
8887;SDS011;4480;52.370;9.748;2023-06-10T08:26:59;7.43;;;5.20;;
8887;SDS011;4480;52.370;9.748;2023-06-10T08:29:27;7.63;;;5.50;;
8887;SDS011;4480;52.370;9.748;2023-06-10T08:31:56;7.13;;;5.10;;
8887;SDS011;4480;52.370;9.748;2023-06-10T08:34:23;9.40;;;5.50;;
8887;SDS011;4480;52.370;9.748;2023-06-10T08:36:49;7.07;;;5.17;;
8887;SDS011;4480;52.370;9.748;2023-06-10T08:39:20;10.30;;;5.60;;
8887;SDS011;4480;52.370;9.748;2023-06-10T08:41:49;7.60;;;4.97;;
8887;SDS011;4480;52.370;9.748;2023-06-10T08:44:26;10.23;;;6.10;;
8887;SDS011;4480;52.370;9.748;2023-06-10T08:46:58;10.47;;;5.43;;
8887;SDS011;4480;52.370;9.748;2023-06-10T08:49:26;8.20;;;5.00;;
8887;SDS011;4480;52.370;9.748;2023-06-10T08:51:57;9.50;;;5.20;;
8887;SDS011;4480;52.370;9.748;2023-06-10T08:54:27;5.97;;;4.77;;
8887;SDS011;4480;52.370;9.748;2023-06-10T08:56:57;8.23;;;4.80;;
8887;SDS011;4480;52.370;9.748;2023-06-10T08:59:25;5.67;;;5.07;;
8887;SDS011;4480;52.370;9.748;2023-06-10T09:01:54;5.70;;;5.20;;
8887;SDS011;4480;52.370;9.748;2023-06-10T09:04:21;5.87;;;4.60;;
8887;SDS011;4480;52.370;9.748;2023-06-10T09:06:50;9.60;;;5.20;;
8887;SDS011;4480;52.370;9.748;2023-06-10T09:09:18;8.83;;;5.77;;
8887;SDS011;4480;52.370;9.748;2023-06-10T09:11:45;8.83;;;5.40;;
8887;SDS011;4480;52.370;9.748;2023-06-10T09:14:12;7.50;;;4.50;;
8887;SDS011;4480;52.370;9.748;2023-06-10T09:16:41;6.53;;;4.60;;
8887;SDS011;4480;52.370;9.748;2023-06-10T09:19:10;9.60;;;5.00;;
8887;SDS011;4480;52.370;9.748;2023-06-10T09:21:37;4.93;;;4.43;;
8887;SDS011;4480;52.370;9.748;2023-06-10T09:24:04;9.20;;;4.70;;
8887;SDS011;4480;52.370;9.748;2023-06-10T09:26:31;8.33;;;4.03;;
8887;SDS011;4480;52.370;9.748;2023-06-10T09:29:02;6.40;;;4.23;;
8887;SDS011;4480;52.370;9.748;2023-06-10T09:31:30;6.70;;;4.10;;
8887;SDS011;4480;52.370;9.748;2023-06-10T09:34:04;6.10;;;4.20;;
8887;SDS011;4480;52.370;9.748;2023-06-10T09:36:33;6.63;;;4.67;;
8887;SDS011;4480;52.370;9.748;2023-06-10T09:39:02;7.00;;;5.50;;
8887;SDS011;4480;52.370;9.748;2023-06-10T09:41:32;5.80;;;5.30;;
8887;SDS011;4480;52.370;9.748;2023-06-10T09:44:00;5.00;;;4.27;;
8887;SDS011;4480;52.370;9.748;2023-06-10T09:46:30;4.60;;;4.00;;
8887;SDS011;4480;52.370;9.748;2023-06-10T09:48:58;8.60;;;4.33;;
8887;SDS011;4480;52.370;9.748;2023-06-10T09:51:25;7.03;;;4.77;;
8887;SDS011;4480;52.370;9.748;2023-06-10T09:53:53;7.00;;;4.87;;
8887;SDS011;4480;52.370;9.748;2023-06-10T09:56:20;5.70;;;4.47;;
8887;SDS011;4480;52.370;9.748;2023-06-10T09:58:49;4.40;;;4.10;;
8887;SDS011;4480;52.370;9.748;2023-06-10T10:01:19;6.23;;;5.63;;
8887;SDS011;4480;52.370;9.748;2023-06-10T10:03:45;8.03;;;4.20;;
8887;SDS011;4480;52.370;9.748;2023-06-10T10:06:14;6.63;;;4.60;;
8887;SDS011;4480;52.370;9.748;2023-06-10T10:08:42;5.00;;;4.17;;
8887;SDS011;4480;52.370;9.748;2023-06-10T10:11:10;6.50;;;4.90;;
8887;SDS011;4480;52.370;9.748;2023-06-10T10:13:38;5.20;;;4.17;;
8887;SDS011;4480;52.370;9.748;2023-06-10T10:16:06;7.70;;;4.70;;
8887;SDS011;4480;52.370;9.748;2023-06-10T10:18:37;9.53;;;4.70;;
8887;SDS011;4480;52.370;9.748;2023-06-10T10:21:09;7.70;;;4.50;;
8887;SDS011;4480;52.370;9.748;2023-06-10T10:23:40;7.90;;;4.67;;
8887;SDS011;4480;52.370;9.748;2023-06-10T10:26:15;6.27;;;4.40;;
8887;SDS011;4480;52.370;9.748;2023-06-10T10:28:45;6.20;;;4.73;;
8887;SDS011;4480;52.370;9.748;2023-06-10T10:31:18;7.97;;;4.93;;
8887;SDS011;4480;52.370;9.748;2023-06-10T10:33:48;7.60;;;4.63;;
8887;SDS011;4480;52.370;9.748;2023-06-10T10:36:21;7.07;;;4.63;;
8887;SDS011;4480;52.370;9.748;2023-06-10T10:38:48;5.47;;;4.90;;
8887;SDS011;4480;52.370;9.748;2023-06-10T10:41:17;7.70;;;4.70;;
8887;SDS011;4480;52.370;9.748;2023-06-10T10:43:45;6.87;;;4.60;;
8887;SDS011;4480;52.370;9.748;2023-06-10T10:46:14;5.80;;;5.20;;
8887;SDS011;4480;52.370;9.748;2023-06-10T10:48:42;7.83;;;5.07;;
8887;SDS011;4480;52.370;9.748;2023-06-10T10:51:10;5.83;;;5.33;;
8887;SDS011;4480;52.370;9.748;2023-06-10T10:53:37;7.40;;;4.93;;
8887;SDS011;4480;52.370;9.748;2023-06-10T10:56:04;10.03;;;4.83;;
8887;SDS011;4480;52.370;9.748;2023-06-10T10:58:34;7.30;;;5.50;;
8887;SDS011;4480;52.370;9.748;2023-06-10T11:01:09;6.10;;;4.90;;
8887;SDS011;4480;52.370;9.748;2023-06-10T11:03:41;6.30;;;4.83;;
8887;SDS011;4480;52.370;9.748;2023-06-10T11:06:11;7.17;;;5.30;;
8887;SDS011;4480;52.370;9.748;2023-06-10T11:08:46;6.60;;;5.50;;
8887;SDS011;4480;52.370;9.748;2023-06-10T11:11:19;8.63;;;5.70;;
8887;SDS011;4480;52.370;9.748;2023-06-10T11:16:38;7.10;;;6.07;;
8887;SDS011;4480;52.370;9.748;2023-06-10T11:19:07;6.63;;;5.83;;
8887;SDS011;4480;52.370;9.748;2023-06-10T11:21:37;8.03;;;6.03;;
8887;SDS011;4480;52.370;9.748;2023-06-10T11:24:18;7.73;;;6.17;;
8887;SDS011;4480;52.370;9.748;2023-06-10T11:26:45;6.20;;;5.70;;
8887;SDS011;4480;52.370;9.748;2023-06-10T11:29:14;7.27;;;6.60;;
8887;SDS011;4480;52.370;9.748;2023-06-10T11:31:42;7.20;;;5.57;;
8887;SDS011;4480;52.370;9.748;2023-06-10T11:34:12;6.53;;;5.90;;
8887;SDS011;4480;52.370;9.748;2023-06-10T11:36:40;7.97;;;6.67;;
8887;SDS011;4480;52.370;9.748;2023-06-10T11:39:10;8.90;;;6.80;;
8887;SDS011;4480;52.370;9.748;2023-06-10T11:41:38;7.30;;;6.10;;
8887;SDS011;4480;52.370;9.748;2023-06-10T11:44:07;8.13;;;6.30;;
8887;SDS011;4480;52.370;9.748;2023-06-10T11:46:37;9.17;;;6.77;;
8887;SDS011;4480;52.370;9.748;2023-06-10T11:49:04;7.27;;;6.67;;
8887;SDS011;4480;52.370;9.748;2023-06-10T11:51:33;7.87;;;7.07;;
8887;SDS011;4480;52.370;9.748;2023-06-10T11:54:02;6.23;;;5.60;;
8887;SDS011;4480;52.370;9.748;2023-06-10T11:56:30;7.60;;;6.77;;
8887;SDS011;4480;52.370;9.748;2023-06-10T11:58:58;7.70;;;7.00;;
8887;SDS011;4480;52.370;9.748;2023-06-10T12:01:29;7.53;;;6.87;;
8887;SDS011;4480;52.370;9.748;2023-06-10T12:03:59;8.97;;;7.00;;
8887;SDS011;4480;52.370;9.748;2023-06-10T12:06:27;10.73;;;6.97;;
8887;SDS011;4480;52.370;9.748;2023-06-10T12:09:03;9.07;;;7.30;;
8887;SDS011;4480;52.370;9.748;2023-06-10T12:11:30;8.40;;;6.80;;
8887;SDS011;4480;52.370;9.748;2023-06-10T12:13:57;7.90;;;7.07;;
8887;SDS011;4480;52.370;9.748;2023-06-10T12:16:24;9.47;;;6.80;;
8887;SDS011;4480;52.370;9.748;2023-06-10T12:18:51;7.83;;;7.03;;
8887;SDS011;4480;52.370;9.748;2023-06-10T12:21:29;8.03;;;7.00;;
8887;SDS011;4480;52.370;9.748;2023-06-10T12:24:00;7.97;;;7.17;;
8887;SDS011;4480;52.370;9.748;2023-06-10T12:26:39;7.60;;;6.80;;
8887;SDS011;4480;52.370;9.748;2023-06-10T12:29:17;8.23;;;7.47;;
8887;SDS011;4480;52.370;9.748;2023-06-10T12:31:52;7.40;;;6.70;;
8887;SDS011;4480;52.370;9.748;2023-06-10T12:34:21;7.43;;;6.83;;
8887;SDS011;4480;52.370;9.748;2023-06-10T12:36:54;8.13;;;7.53;;
8887;SDS011;4480;52.370;9.748;2023-06-10T12:39:21;7.27;;;6.57;;
8887;SDS011;4480;52.370;9.748;2023-06-10T12:41:48;7.27;;;6.57;;
8887;SDS011;4480;52.370;9.748;2023-06-10T12:44:17;8.17;;;7.10;;
8887;SDS011;4480;52.370;9.748;2023-06-10T12:46:43;8.97;;;6.10;;
8887;SDS011;4480;52.370;9.748;2023-06-10T12:49:18;7.53;;;6.83;;
8887;SDS011;4480;52.370;9.748;2023-06-10T12:51:46;7.10;;;6.37;;
8887;SDS011;4480;52.370;9.748;2023-06-10T12:54:13;7.70;;;7.00;;
8887;SDS011;4480;52.370;9.748;2023-06-10T12:56:40;9.00;;;7.43;;
8887;SDS011;4480;52.370;9.748;2023-06-10T12:59:07;8.10;;;6.97;;
8887;SDS011;4480;52.370;9.748;2023-06-10T13:01:34;8.60;;;7.80;;
8887;SDS011;4480;52.370;9.748;2023-06-10T13:04:01;7.60;;;6.90;;
8887;SDS011;4480;52.370;9.748;2023-06-10T13:06:29;8.13;;;7.27;;
8887;SDS011;4480;52.370;9.748;2023-06-10T13:08:57;9.37;;;7.60;;
8887;SDS011;4480;52.370;9.748;2023-06-10T13:11:24;8.20;;;7.40;;
8887;SDS011;4480;52.370;9.748;2023-06-10T13:13:50;7.70;;;6.97;;
8887;SDS011;4480;52.370;9.748;2023-06-10T13:16:17;13.20;;;6.47;;
8887;SDS011;4480;52.370;9.748;2023-06-10T13:18:44;9.13;;;6.70;;
8887;SDS011;4480;52.370;9.748;2023-06-10T13:21:11;7.27;;;6.57;;
8887;SDS011;4480;52.370;9.748;2023-06-10T13:23:39;7.00;;;6.40;;
8887;SDS011;4480;52.370;9.748;2023-06-10T13:26:06;6.67;;;6.07;;
8887;SDS011;4480;52.370;9.748;2023-06-10T13:28:32;10.37;;;7.33;;
8887;SDS011;4480;52.370;9.748;2023-06-10T13:30:59;7.40;;;6.20;;
8887;SDS011;4480;52.370;9.748;2023-06-10T13:33:26;7.30;;;6.60;;
8887;SDS011;4480;52.370;9.748;2023-06-10T13:35:53;7.93;;;6.53;;
8887;SDS011;4480;52.370;9.748;2023-06-10T13:38:20;7.07;;;6.33;;
8887;SDS011;4480;52.370;9.748;2023-06-10T13:40:48;7.80;;;7.20;;
8887;SDS011;4480;52.370;9.748;2023-06-10T13:43:16;8.83;;;6.83;;
8887;SDS011;4480;52.370;9.748;2023-06-10T13:45:42;9.80;;;6.93;;
8887;SDS011;4480;52.370;9.748;2023-06-10T13:48:10;7.10;;;6.40;;
8887;SDS011;4480;52.370;9.748;2023-06-10T13:50:37;8.83;;;6.23;;
8887;SDS011;4480;52.370;9.748;2023-06-10T13:53:04;9.23;;;6.80;;
8887;SDS011;4480;52.370;9.748;2023-06-10T13:55:30;7.47;;;6.77;;
8887;SDS011;4480;52.370;9.748;2023-06-10T13:57:58;7.40;;;6.70;;
8887;SDS011;4480;52.370;9.748;2023-06-10T14:00:25;11.73;;;7.70;;
8887;SDS011;4480;52.370;9.748;2023-06-10T14:02:52;7.57;;;6.87;;
8887;SDS011;4480;52.370;9.748;2023-06-10T14:05:19;7.70;;;6.80;;
8887;SDS011;4480;52.370;9.748;2023-06-10T14:07:46;7.20;;;6.60;;
8887;SDS011;4480;52.370;9.748;2023-06-10T14:10:12;7.10;;;6.47;;
8887;SDS011;4480;52.370;9.748;2023-06-10T14:12:39;6.70;;;6.10;;
8887;SDS011;4480;52.370;9.748;2023-06-10T14:15:08;8.33;;;6.03;;
8887;SDS011;4480;52.370;9.748;2023-06-10T14:17:36;7.00;;;6.40;;
8887;SDS011;4480;52.370;9.748;2023-06-10T14:20:03;9.30;;;6.43;;
8887;SDS011;4480;52.370;9.748;2023-06-10T14:22:30;6.80;;;6.20;;
8887;SDS011;4480;52.370;9.748;2023-06-10T14:24:57;7.30;;;6.60;;
8887;SDS011;4480;52.370;9.748;2023-06-10T14:27:24;9.70;;;6.40;;
8887;SDS011;4480;52.370;9.748;2023-06-10T14:29:50;7.77;;;7.07;;
8887;SDS011;4480;52.370;9.748;2023-06-10T14:32:19;6.80;;;6.20;;
8887;SDS011;4480;52.370;9.748;2023-06-10T14:34:45;8.60;;;7.00;;
8887;SDS011;4480;52.370;9.748;2023-06-10T14:37:12;7.17;;;6.47;;
8887;SDS011;4480;52.370;9.748;2023-06-10T14:39:39;8.27;;;7.40;;
8887;SDS011;4480;52.370;9.748;2023-06-10T14:42:06;7.60;;;6.90;;
8887;SDS011;4480;52.370;9.748;2023-06-10T14:44:33;8.07;;;6.80;;
8887;SDS011;4480;52.370;9.748;2023-06-10T14:47:00;7.27;;;6.57;;
8887;SDS011;4480;52.370;9.748;2023-06-10T14:49:29;6.60;;;6.10;;
8887;SDS011;4480;52.370;9.748;2023-06-10T14:51:55;7.83;;;7.03;;
8887;SDS011;4480;52.370;9.748;2023-06-10T14:54:22;8.10;;;7.30;;
8887;SDS011;4480;52.370;9.748;2023-06-10T14:56:49;8.27;;;7.03;;
8887;SDS011;4480;52.370;9.748;2023-06-10T14:59:16;6.50;;;5.83;;
8887;SDS011;4480;52.370;9.748;2023-06-10T15:01:43;7.10;;;6.43;;
8887;SDS011;4480;52.370;9.748;2023-06-10T15:04:09;7.70;;;7.00;;
8887;SDS011;4480;52.370;9.748;2023-06-10T15:06:37;6.73;;;6.10;;
8887;SDS011;4480;52.370;9.748;2023-06-10T15:09:04;7.17;;;5.83;;
8887;SDS011;4480;52.370;9.748;2023-06-10T15:11:31;7.77;;;7.00;;
8887;SDS011;4480;52.370;9.748;2023-06-10T15:13:58;7.83;;;7.03;;
8887;SDS011;4480;52.370;9.748;2023-06-10T15:16:25;8.73;;;6.60;;
8887;SDS011;4480;52.370;9.748;2023-06-10T15:18:51;6.63;;;6.03;;
8887;SDS011;4480;52.370;9.748;2023-06-10T15:21:18;8.90;;;7.30;;